createdAt,value
2019-01-27T12:26:10.445Z,43.59
2019-01-27T12:27:10.445Z,43.79
2019-01-27T12:29:11.527Z,42.77
2019-01-27T12:31:06.508Z,38.27
2019-01-27T12:32:06.440Z,50.95
2019-01-27T12:33:06.495Z,58.68
2019-01-27T12:34:06.401Z,62.54
2019-01-27T12:35:06.551Z,68.57
2019-01-27T12:36:06.398Z,70.46
2019-01-27T12:37:06.525Z,71.72
2019-01-27T12:38:06.373Z,72.03
2019-01-27T12:39:06.530Z,73.81
2019-01-27T12:40:06.330Z,74.46
2019-01-27T12:41:06.473Z,74.12
2019-01-27T12:42:06.312Z,74.46
2019-01-27T12:43:06.466Z,76.25
2019-01-27T12:44:06.301Z,77.62
2019-01-27T12:45:06.365Z,77.35
2019-01-27T12:46:06.327Z,78.93
2019-01-27T12:47:06.388Z,78.41
2019-01-27T12:48:06.274Z,77.97
2019-01-27T12:49:06.295Z,79.00
2019-01-27T12:50:06.247Z,79.65
2019-01-27T12:51:06.389Z,79.03
2019-01-27T12:52:06.237Z,79.34
2019-01-27T12:53:06.319Z,80.06
2019-01-27T12:54:06.202Z,81.51
2019-01-27T12:55:06.333Z,81.20
2019-01-27T12:56:06.214Z,80.99
2019-01-27T12:57:06.352Z,81.30
2019-01-27T12:58:06.388Z,80.82
2019-01-27T12:59:06.261Z,81.09
2019-01-27T13:00:06.123Z,80.99
2019-01-27T13:01:06.412Z,80.89
2019-01-27T13:02:06.104Z,81.61
2019-01-27T13:03:06.421Z,81.61
2019-01-27T13:04:06.099Z,82.16
2019-01-27T13:05:10.216Z,82.26
2019-01-27T13:06:06.244Z,82.57
2019-01-27T13:07:06.100Z,81.71
2019-01-27T13:08:06.061Z,81.71
2019-01-27T13:09:06.102Z,81.09
2019-01-27T13:10:06.024Z,81.09
2019-01-27T13:11:06.291Z,81.61
2019-01-27T13:12:06.083Z,81.81
2019-01-27T13:13:06.049Z,81.20
2019-01-27T13:14:05.986Z,81.40
2019-01-27T13:16:07.260Z,81.81
2019-01-27T13:18:07.192Z,81.75
2019-01-27T13:20:07.143Z,82.68
2019-01-27T13:22:07.143Z,82.20
2019-01-27T13:23:28.926Z,82.37
2019-01-27T13:24:05.852Z,82.26
2019-01-27T13:25:05.906Z,82.78
2019-01-27T13:26:05.880Z,83.29
2019-01-27T13:27:06.901Z,83.13
2019-01-27T13:28:05.868Z,83.44
2019-01-27T13:29:05.832Z,82.61
2019-01-27T13:30:05.942Z,82.10
2019-01-27T13:31:05.932Z,82.61
2019-01-27T13:32:05.799Z,81.89
2019-01-27T13:33:05.848Z,81.68
2019-01-27T13:34:05.758Z,82.24
2019-01-27T13:35:05.871Z,82.65
2019-01-27T13:36:05.738Z,82.75
2019-01-27T13:37:05.802Z,82.75
2019-01-27T13:38:05.703Z,83.48
2019-01-27T13:39:05.883Z,83.68
2019-01-27T13:40:05.682Z,83.27
2019-01-27T13:41:05.808Z,83.17
2019-01-27T13:42:05.706Z,82.96
2019-01-27T13:43:07.757Z,84.03
2019-01-27T13:44:05.642Z,84.75
2019-01-27T13:46:06.809Z,83.37
2019-01-27T13:48:06.815Z,84.06
2019-01-27T13:49:05.788Z,82.78
2019-01-27T13:50:05.591Z,82.71
2019-01-27T13:51:05.644Z,82.82
2019-01-27T13:52:05.577Z,82.51
2019-01-27T13:53:05.669Z,82.71
2019-01-27T13:54:05.550Z,83.13
2019-01-27T13:55:05.706Z,83.33
2019-01-27T13:56:05.531Z,84.27
2019-01-27T13:57:09.102Z,84.09
2019-01-27T13:58:05.478Z,84.51
2019-01-27T13:59:05.598Z,84.30
2019-01-27T14:00:05.459Z,83.95
2019-01-27T14:01:05.610Z,83.95
2019-01-27T14:02:05.507Z,84.47
2019-01-27T14:03:05.528Z,84.81
2019-01-27T14:04:05.464Z,83.75
2019-01-27T14:05:05.559Z,83.50
2019-01-27T14:06:05.414Z,83.09
2019-01-27T14:07:05.543Z,83.50
2019-01-27T14:08:05.444Z,83.61
2019-01-27T14:09:05.476Z,82.89
2019-01-27T14:10:05.373Z,83.64
2019-01-27T14:11:05.481Z,84.12
2019-01-27T14:12:05.335Z,84.47
2019-01-27T14:13:05.537Z,84.78
2019-01-27T14:14:05.356Z,85.19
2019-01-27T14:15:12.478Z,84.57
2019-01-27T14:16:06.281Z,85.19
2019-01-27T14:17:05.401Z,85.39
2019-01-27T14:18:05.303Z,85.19
2019-01-27T14:19:05.582Z,85.30
2019-01-27T14:20:05.255Z,85.54
2019-01-27T14:21:05.445Z,85.95
2019-01-27T14:22:05.218Z,86.36
2019-01-27T14:23:05.438Z,86.26
2019-01-27T14:24:05.226Z,86.16
2019-01-27T14:26:06.333Z,86.16
2019-01-27T14:27:07.338Z,85.64
2019-01-27T14:28:05.150Z,86.16
2019-01-27T14:29:06.336Z,87.02
2019-01-27T14:30:05.133Z,86.51
2019-01-27T14:31:05.287Z,86.36
2019-01-27T14:32:05.107Z,86.36
2019-01-27T14:33:05.188Z,86.57
2019-01-27T14:34:05.120Z,86.68
2019-01-27T14:35:05.104Z,86.16
2019-01-27T14:36:05.073Z,86.57
2019-01-27T14:37:05.127Z,86.92
2019-01-27T14:38:05.049Z,87.95
2019-01-27T14:39:05.166Z,87.74
2019-01-27T14:40:05.025Z,87.74
2019-01-27T14:41:06.325Z,87.23
2019-01-27T14:42:05.015Z,87.74
2019-01-27T14:43:05.049Z,88.61
2019-01-27T14:44:05.041Z,88.61
2019-01-27T14:45:05.501Z,88.82
2019-01-27T14:46:04.960Z,88.61
2019-01-27T14:47:04.996Z,88.20
2019-01-27T14:48:04.987Z,88.71
2019-01-27T14:49:04.984Z,88.71
2019-01-27T14:50:04.981Z,88.92
2019-01-27T14:51:05.002Z,88.92
2019-01-27T14:52:04.877Z,88.89
2019-01-27T14:53:04.915Z,88.78
2019-01-27T14:54:04.878Z,87.95
2019-01-27T14:55:04.967Z,87.23
2019-01-27T14:56:04.846Z,87.50
2019-01-27T14:57:04.956Z,86.36
2019-01-27T14:58:04.833Z,86.68
2019-01-27T14:59:04.846Z,86.98
2019-01-27T15:00:04.847Z,86.78
2019-01-27T15:01:04.848Z,86.68
2019-01-27T15:02:04.795Z,87.40
2019-01-27T15:03:04.886Z,88.43
2019-01-27T15:04:04.766Z,87.50
2019-01-27T15:05:04.822Z,87.74
2019-01-27T15:06:04.740Z,87.50
2019-01-27T15:07:04.804Z,87.95
2019-01-27T15:08:04.900Z,88.26
2019-01-27T15:09:04.802Z,88.92
2019-01-27T15:10:05.044Z,88.26
2019-01-27T15:11:05.782Z,87.99
2019-01-27T15:12:04.676Z,87.95
2019-01-27T15:13:04.943Z,88.06
2019-01-27T15:14:05.037Z,88.10
2019-01-27T15:15:04.737Z,88.20
2019-01-27T15:16:04.652Z,88.10
2019-01-27T15:17:04.734Z,88.51
2019-01-27T15:18:04.937Z,88.31
2019-01-27T15:19:04.706Z,88.37
2019-01-27T15:20:04.594Z,88.41
2019-01-27T15:21:04.725Z,89.13
2019-01-27T15:22:04.587Z,89.13
2019-01-27T15:23:04.887Z,89.13
2019-01-27T15:24:04.529Z,88.92
2019-01-27T15:25:04.616Z,88.92
2019-01-27T15:26:05.754Z,88.71
2019-01-27T15:27:04.741Z,88.71
2019-01-27T15:28:04.512Z,89.86
2019-01-27T15:30:06.075Z,90.20
2019-01-27T15:31:05.590Z,89.89
2019-01-27T15:32:04.680Z,89.75
2019-01-27T15:34:05.706Z,89.59
2019-01-27T15:36:05.628Z,89.13
2019-01-27T15:37:04.916Z,89.44
2019-01-27T15:38:04.411Z,90.52
2019-01-27T15:39:04.486Z,90.83
2019-01-27T15:40:04.504Z,90.62
2019-01-27T15:41:04.418Z,90.58
2019-01-27T15:42:04.417Z,90.93
2019-01-27T15:43:04.417Z,90.52
2019-01-27T15:44:04.385Z,90.93
2019-01-27T15:45:04.466Z,90.52
2019-01-27T15:46:04.782Z,90.10
2019-01-27T15:47:04.350Z,90.41
2019-01-27T15:48:04.287Z,90.35
2019-01-27T15:49:04.350Z,90.35
2019-01-27T15:50:04.292Z,90.77
2019-01-27T15:51:04.350Z,90.56
2019-01-27T15:52:04.312Z,90.56
2019-01-27T15:53:04.279Z,90.77
2019-01-27T15:54:04.244Z,90.66
2019-01-27T15:55:06.488Z,90.56
2019-01-27T15:56:04.268Z,90.35
2019-01-27T15:57:05.555Z,90.20
2019-01-27T15:58:04.199Z,89.94
2019-01-27T15:59:04.185Z,89.73
2019-01-27T16:00:04.164Z,89.32
2019-01-27T16:02:05.734Z,89.42
2019-01-27T16:03:04.134Z,88.59
2019-01-27T16:04:04.168Z,88.28
2019-01-27T16:05:04.143Z,87.91
2019-01-27T16:06:04.660Z,88.22
2019-01-27T16:07:04.165Z,88.43
2019-01-27T16:08:04.214Z,88.16
2019-01-27T16:09:04.153Z,87.70
2019-01-27T16:10:04.221Z,88.09
2019-01-27T16:11:04.059Z,88.16
2019-01-27T16:12:04.081Z,87.95
2019-01-27T16:13:04.470Z,88.36
2019-01-27T16:14:04.171Z,88.57
2019-01-27T16:15:04.089Z,87.95
2019-01-27T16:16:03.964Z,87.88
2019-01-27T16:17:05.051Z,88.57
2019-01-27T16:18:04.022Z,88.30
2019-01-27T16:19:04.019Z,88.61
2019-01-27T16:20:03.911Z,88.30
2019-01-27T16:22:05.115Z,86.13
2019-01-27T16:23:03.963Z,87.82
2019-01-27T16:24:03.879Z,88.65
2019-01-27T16:25:03.947Z,88.34
2019-01-27T16:26:03.888Z,88.03
2019-01-27T16:27:06.319Z,87.20
2019-01-27T16:28:03.850Z,86.79
2019-01-27T16:29:04.243Z,86.37
2019-01-27T16:30:03.831Z,87.30
2019-01-27T16:31:51.930Z,86.83
2019-01-27T16:33:04.973Z,85.69
2019-01-27T16:35:05.011Z,87.35
2019-01-27T16:36:04.075Z,86.52
2019-01-27T16:37:04.148Z,86.93
2019-01-27T16:38:03.929Z,86.58
2019-01-27T16:39:07.162Z,87.14
2019-01-27T16:41:04.905Z,88.18
2019-01-27T16:43:05.098Z,87.97
2019-01-27T16:44:03.794Z,88.69
2019-01-27T16:45:03.751Z,87.76
2019-01-27T16:46:03.669Z,88.69
2019-01-27T16:47:03.672Z,88.28
2019-01-27T16:48:03.812Z,88.39
2019-01-27T16:49:03.657Z,88.90
2019-01-27T16:50:03.698Z,89.21
2019-01-27T16:51:03.595Z,89.83
2019-01-27T16:52:03.752Z,89.94
2019-01-27T16:53:03.547Z,89.94
2019-01-27T16:54:03.611Z,90.45
2019-01-27T16:55:03.557Z,90.35
2019-01-27T16:56:03.673Z,90.04
2019-01-27T16:57:03.534Z,89.94
2019-01-27T16:58:03.565Z,90.04
2019-01-27T16:59:03.705Z,90.45
2019-01-27T17:00:03.586Z,90.25
2019-01-27T17:01:04.161Z,90.35
2019-01-27T17:02:03.608Z,90.45
2019-01-27T17:03:03.442Z,90.35
2019-01-27T17:04:05.526Z,90.56
2019-01-27T17:05:03.486Z,90.25
2019-01-27T17:07:04.655Z,90.77
2019-01-27T17:09:03.413Z,89.94
2019-01-27T17:11:05.049Z,89.62
2019-01-27T17:12:03.604Z,89.62
2019-01-27T17:13:04.427Z,89.94
2019-01-27T17:14:03.577Z,90.29
2019-01-27T17:15:03.420Z,90.35
2019-01-27T17:16:03.347Z,89.87
2019-01-27T17:17:03.298Z,90.19
2019-01-27T17:18:03.442Z,89.73
2019-01-27T17:19:03.282Z,90.14
2019-01-27T17:20:05.243Z,89.11
2019-01-27T17:21:03.334Z,89.00
2019-01-27T17:23:04.448Z,89.21
2019-01-27T17:24:03.529Z,90.14
2019-01-27T17:25:09.148Z,89.31
2019-01-27T17:26:03.334Z,88.32
2019-01-27T17:27:03.283Z,88.69
2019-01-27T17:28:03.255Z,88.90
2019-01-27T17:29:03.180Z,89.83
2019-01-27T17:30:03.276Z,90.25
2019-01-27T17:31:03.160Z,89.94
2019-01-27T17:32:03.229Z,89.94
2019-01-27T17:33:03.143Z,89.42
2019-01-27T17:34:03.138Z,90.45
2019-01-27T17:35:03.086Z,96.86
2019-01-27T17:36:03.192Z,99.99
2019-01-27T17:37:03.068Z,99.99
2019-01-27T17:38:03.583Z,99.99
2019-01-27T17:39:09.667Z,99.99
2019-01-27T17:41:04.657Z,99.99
2019-01-27T17:42:03.085Z,99.99
2019-01-27T17:43:03.120Z,99.99
2019-01-27T17:44:03.105Z,99.99
2019-01-27T17:45:03.128Z,99.99
2019-01-27T17:46:03.301Z,99.99
2019-01-27T17:47:02.982Z,99.99
2019-01-27T17:48:03.035Z,99.98
2019-01-27T17:49:03.112Z,99.99
2019-01-27T17:50:03.044Z,99.99
2019-01-27T17:51:02.924Z,99.66
2019-01-27T17:52:03.096Z,99.98
2019-01-27T17:53:03.282Z,99.77
2019-01-27T17:54:24.588Z,99.56
2019-01-27T17:55:02.894Z,99.99
2019-01-27T17:56:04.918Z,99.87
2019-01-27T17:57:02.918Z,99.99
2019-01-27T17:59:11.026Z,99.99
2019-01-27T18:00:03.925Z,99.77
2019-01-27T18:01:02.829Z,99.87
2019-01-27T18:02:02.942Z,99.87
2019-01-27T18:03:02.793Z,99.87
2019-01-27T18:04:02.844Z,99.77
2019-01-27T18:05:02.772Z,99.99
2019-01-27T18:07:04.058Z,99.56
2019-01-27T18:08:02.956Z,99.77
2019-01-27T18:09:02.739Z,99.66
2019-01-27T18:10:02.892Z,99.71
2019-01-27T18:11:02.752Z,99.98
2019-01-27T18:12:03.064Z,99.71
2019-01-27T18:13:02.793Z,99.40
2019-01-27T18:14:02.788Z,99.09
2019-01-27T18:15:02.685Z,98.99
2019-01-27T18:16:58.982Z,99.04
2019-01-27T18:17:03.777Z,98.79
2019-01-27T18:18:02.717Z,99.10
2019-01-27T18:19:02.803Z,98.69
2019-01-27T18:20:02.821Z,98.42
2019-01-27T18:21:02.626Z,98.11
2019-01-27T18:22:02.814Z,97.80
2019-01-27T18:23:02.595Z,98.11
2019-01-27T18:24:03.798Z,97.38
2019-01-27T18:25:02.818Z,97.64
2019-01-27T18:26:02.765Z,97.74
2019-01-27T18:27:02.537Z,97.69
2019-01-27T18:28:04.709Z,97.33
2019-01-27T18:29:02.832Z,97.33
2019-01-27T18:30:02.727Z,97.69
2019-01-27T18:31:02.596Z,97.85
2019-01-27T18:32:02.704Z,97.38
2019-01-27T18:33:02.456Z,97.33
2019-01-27T18:34:04.774Z,97.64
2019-01-27T18:35:02.484Z,97.12
2019-01-27T18:37:03.661Z,97.64
2019-01-27T18:38:02.711Z,97.33
2019-01-27T18:39:02.417Z,97.07
2019-01-27T18:40:02.444Z,97.64
2019-01-27T18:41:02.392Z,97.53
2019-01-27T18:42:25.712Z,97.74
2019-01-27T18:43:02.463Z,97.49
2019-01-27T18:45:03.553Z,98.47
2019-01-27T18:46:02.383Z,97.33
2019-01-27T18:47:02.311Z,97.85
2019-01-27T18:48:02.403Z,97.85
2019-01-27T18:49:02.299Z,97.12
2019-01-27T18:50:02.378Z,97.53
2019-01-27T18:51:02.268Z,97.02
2019-01-27T18:52:02.292Z,97.74
2019-01-27T18:53:02.317Z,95.87
2019-01-27T18:54:41.788Z,96.50
2019-01-27T18:55:03.342Z,96.39
2019-01-27T18:56:02.221Z,95.98
2019-01-27T18:57:04.079Z,96.19
2019-01-27T18:58:02.233Z,96.19
2019-01-27T18:59:02.476Z,96.19
2019-01-27T19:00:02.190Z,96.19
2019-01-27T19:01:02.351Z,96.70
2019-01-27T19:02:02.153Z,95.56
2019-01-27T19:04:03.326Z,95.67
2019-01-27T19:05:02.277Z,96.50
2019-01-27T19:06:02.092Z,96.50
2019-01-27T19:07:02.182Z,95.36
2019-01-27T19:08:02.078Z,95.46
2019-01-27T19:09:02.253Z,95.77
2019-01-27T19:10:02.074Z,96.39
2019-01-27T19:11:02.314Z,95.87
2019-01-27T19:12:02.038Z,96.39
2019-01-27T19:13:02.121Z,95.36
2019-01-27T19:14:02.069Z,96.23
2019-01-27T19:15:02.031Z,96.60
2019-01-27T19:16:02.015Z,96.19
2019-01-27T19:17:05.812Z,96.39
2019-01-27T19:18:01.973Z,96.50
2019-01-27T19:19:02.053Z,96.19
2019-01-27T19:20:01.982Z,95.04
2019-01-27T19:21:02.114Z,95.09
2019-01-27T19:22:01.936Z,95.46
2019-01-27T19:24:03.121Z,94.84
2019-01-27T19:25:02.969Z,94.53
2019-01-27T19:26:01.915Z,94.42
2019-01-27T19:27:01.998Z,93.38
2019-01-27T19:28:01.874Z,94.21
2019-01-27T19:29:02.017Z,93.38
2019-01-27T19:30:02.606Z,93.49
2019-01-27T19:31:03.024Z,94.42
2019-01-27T19:32:02.402Z,94.42
2019-01-27T19:33:01.855Z,93.80
2019-01-27T19:34:01.792Z,93.80
2019-01-27T19:35:01.886Z,93.38
2019-01-27T19:36:01.789Z,93.84
2019-01-27T19:37:01.907Z,94.15
2019-01-27T19:38:01.765Z,93.53
2019-01-27T19:39:01.765Z,93.95
2019-01-27T19:40:01.724Z,94.05
2019-01-27T19:41:01.805Z,93.63
2019-01-27T19:42:01.743Z,93.63
2019-01-27T19:43:01.812Z,93.84
2019-01-27T19:44:01.686Z,93.63
2019-01-27T19:45:01.711Z,94.05
2019-01-27T19:46:01.703Z,94.05
2019-01-27T19:47:01.952Z,93.84
2019-01-27T19:48:01.651Z,94.05
2019-01-27T19:49:01.832Z,93.32
2019-01-27T19:50:01.622Z,93.63
2019-01-27T19:51:01.747Z,93.84
2019-01-27T19:52:01.661Z,93.68
2019-01-27T19:53:01.745Z,94.05
2019-01-27T19:54:01.584Z,93.63
2019-01-27T19:55:01.784Z,93.74
2019-01-27T19:56:01.626Z,93.43
2019-01-27T19:57:02.723Z,93.43
2019-01-27T19:58:01.529Z,93.74
2019-01-27T19:59:03.641Z,93.32
2019-01-27T20:00:01.543Z,92.69
2019-01-27T20:01:01.700Z,92.90
2019-01-27T20:02:01.528Z,92.59
2019-01-27T20:03:01.654Z,93.01
2019-01-27T20:04:01.518Z,92.69
2019-01-27T20:05:01.523Z,92.69
2019-01-27T20:06:01.461Z,92.18
2019-01-27T20:07:01.642Z,92.84
2019-01-27T20:08:01.882Z,92.84
2019-01-27T20:09:01.824Z,92.18
2019-01-27T20:10:01.394Z,92.11
2019-01-27T20:11:02.559Z,92.01
2019-01-27T20:12:01.369Z,91.97
2019-01-27T20:13:08.522Z,92.28
2019-01-27T20:14:02.373Z,92.07
2019-01-27T20:15:01.375Z,92.28
2019-01-27T20:16:01.329Z,91.45
2019-01-27T20:17:03.336Z,91.66
2019-01-27T20:18:03.061Z,91.55
2019-01-27T20:19:01.412Z,91.80
2019-01-27T20:20:01.335Z,91.35
2019-01-27T20:21:01.389Z,91.66
2019-01-27T20:22:01.267Z,91.39
2019-01-27T20:23:01.326Z,91.18
2019-01-27T20:24:01.348Z,90.66
2019-01-27T20:25:01.337Z,90.45
2019-01-27T20:26:01.225Z,90.72
2019-01-27T20:28:02.374Z,90.77
2019-01-27T20:29:01.305Z,90.62
2019-01-27T20:30:01.179Z,90.93
2019-01-27T20:31:01.274Z,90.00
2019-01-27T20:32:01.222Z,90.72
2019-01-27T20:33:01.189Z,90.31
2019-01-27T20:34:01.126Z,90.77
2019-01-27T20:35:01.261Z,90.77
2019-01-27T20:36:01.140Z,90.77
2019-01-27T20:37:01.203Z,90.77
2019-01-27T20:38:01.098Z,90.66
2019-01-27T20:40:02.260Z,91.18
2019-01-27T20:41:01.124Z,90.97
2019-01-27T20:42:01.045Z,90.97
2019-01-27T20:43:01.154Z,91.33
2019-01-27T20:44:01.018Z,90.77
2019-01-27T20:45:01.089Z,90.81
2019-01-27T20:46:01.011Z,90.70
2019-01-27T20:47:01.088Z,90.56
2019-01-27T20:48:01.005Z,90.60
2019-01-27T20:50:02.218Z,90.60
2019-01-27T20:51:00.994Z,91.22
2019-01-27T20:52:00.944Z,91.39
2019-01-27T20:53:01.034Z,90.81
2019-01-27T20:54:00.920Z,90.70
2019-01-27T20:55:00.973Z,90.60
2019-01-27T20:56:00.945Z,90.45
2019-01-27T20:57:00.924Z,90.77
2019-01-27T20:58:00.875Z,90.29
2019-01-27T20:59:00.933Z,90.04
2019-01-27T21:00:00.874Z,90.19
2019-01-27T21:01:01.898Z,90.19
2019-01-27T21:02:00.840Z,89.94
2019-01-27T21:03:00.979Z,90.25
2019-01-27T21:04:00.819Z,89.94
2019-01-27T21:05:00.865Z,90.35
2019-01-27T21:06:00.843Z,90.45
2019-01-27T21:07:00.928Z,88.79
2019-01-27T21:08:00.851Z,89.42
2019-01-27T21:09:00.787Z,90.25
2019-01-27T21:10:01.140Z,90.04
2019-01-27T21:11:01.007Z,90.50
2019-01-27T21:12:00.714Z,90.50
2019-01-27T21:13:00.821Z,89.31
2019-01-27T21:14:00.701Z,89.31
2019-01-27T21:15:00.732Z,88.52
2019-01-27T21:16:00.667Z,88.48
2019-01-27T21:17:01.360Z,89.36
2019-01-27T21:18:00.639Z,88.42
2019-01-27T21:19:00.745Z,89.04
2019-01-27T21:20:00.624Z,88.48
2019-01-27T21:21:00.694Z,89.04
2019-01-27T21:22:00.641Z,88.42
2019-01-27T21:23:00.695Z,89.04
2019-01-27T21:24:00.589Z,88.73
2019-01-27T21:25:00.897Z,89.25
2019-01-27T21:26:00.639Z,89.15
2019-01-27T21:27:00.641Z,89.36
2019-01-27T21:28:00.563Z,88.94
2019-01-27T21:29:00.684Z,89.36
2019-01-27T21:30:00.515Z,89.25
2019-01-27T21:31:00.653Z,89.15
2019-01-27T21:32:00.529Z,89.29
2019-01-27T21:33:00.529Z,89.39
2019-01-27T21:34:01.812Z,88.56
2019-01-27T21:35:00.578Z,88.52
2019-01-27T21:36:00.473Z,88.84
2019-01-27T21:37:00.554Z,88.98
2019-01-27T21:38:00.458Z,89.46
2019-01-27T21:39:00.977Z,88.77
2019-01-27T21:40:00.416Z,89.18
2019-01-27T21:41:00.492Z,89.15
2019-01-27T21:42:00.458Z,89.46
2019-01-27T21:43:00.454Z,89.25
2019-01-27T21:44:00.373Z,88.67
2019-01-27T21:45:21.407Z,88.94
2019-01-27T21:46:00.351Z,88.56
2019-01-27T21:47:02.409Z,87.90
2019-01-27T21:48:00.345Z,88.04
2019-01-27T21:50:01.485Z,88.46
2019-01-27T21:51:00.339Z,87.73
2019-01-27T21:52:00.335Z,88.67
2019-01-27T21:53:00.395Z,89.08
2019-01-27T21:54:00.268Z,88.35
2019-01-27T21:55:00.373Z,87.52
2019-01-27T21:56:00.230Z,88.42
2019-01-27T21:57:00.302Z,88.35
2019-01-27T21:58:00.258Z,89.08
2019-01-27T21:59:00.308Z,88.46
2019-01-27T22:00:00.266Z,88.04
2019-01-27T22:01:00.225Z,88.00
2019-01-27T22:02:00.177Z,88.98
2019-01-27T22:03:00.275Z,88.46
2019-01-27T22:04:00.151Z,88.77
2019-01-27T22:05:00.292Z,89.08
2019-01-27T22:06:00.141Z,88.35
2019-01-27T22:07:00.279Z,88.98
2019-01-27T22:08:00.144Z,88.67
2019-01-27T22:09:00.403Z,88.94
2019-01-27T22:10:00.198Z,88.46
2019-01-27T22:11:00.162Z,88.56
2019-01-27T22:12:00.070Z,88.94
2019-01-27T22:13:00.070Z,87.42
2019-01-27T22:14:00.107Z,88.35
2019-01-27T22:15:00.246Z,88.04
2019-01-27T22:16:00.037Z,88.15
2019-01-27T22:17:00.107Z,88.31
2019-01-27T22:17:59.985Z,88.00
2019-01-27T22:19:00.034Z,87.79
2019-01-27T22:20:00.008Z,87.59
2019-01-27T22:21:00.036Z,87.69
2019-01-27T22:21:59.958Z,87.38
2019-01-27T22:23:00.047Z,87.38
2019-01-27T22:24:00.113Z,87.90
2019-01-27T22:24:59.935Z,88.00
2019-01-27T22:25:59.917Z,88.31
2019-01-27T22:28:01.041Z,88.56
2019-01-27T22:28:59.957Z,88.52
2019-01-27T22:29:59.920Z,88.00
2019-01-27T22:30:59.883Z,88.10
2019-01-27T22:31:59.848Z,87.48
2019-01-27T22:32:59.894Z,88.10
2019-01-27T22:33:59.871Z,88.00
2019-01-27T22:34:59.905Z,88.42
2019-01-27T22:35:59.848Z,87.59
2019-01-27T22:36:59.812Z,87.27
2019-01-27T22:37:59.837Z,87.69
2019-01-27T22:38:59.856Z,87.69
2019-01-27T22:39:59.777Z,87.45
2019-01-27T22:42:00.913Z,87.59
2019-01-27T22:42:59.848Z,86.86
2019-01-27T22:43:59.715Z,87.59
2019-01-27T22:44:59.788Z,86.61
2019-01-27T22:45:59.687Z,87.07
2019-01-27T22:48:00.867Z,87.07
2019-01-27T22:48:59.674Z,87.03
2019-01-27T22:49:59.646Z,86.86
2019-01-27T22:50:59.747Z,87.59
2019-01-27T22:51:59.684Z,87.17
2019-01-27T22:52:59.705Z,87.03
2019-01-27T22:53:59.613Z,86.55
2019-01-27T22:54:59.619Z,86.65
2019-01-27T22:55:59.593Z,86.44
2019-01-27T22:56:59.659Z,86.76
2019-01-27T22:57:59.577Z,86.65
2019-01-27T22:58:59.646Z,86.55
2019-01-27T22:59:59.532Z,86.55
2019-01-27T23:00:59.690Z,86.82
2019-01-27T23:01:59.606Z,86.65
2019-01-27T23:02:59.550Z,86.96
2019-01-27T23:03:59.477Z,86.93
2019-01-27T23:04:59.567Z,86.55
2019-01-27T23:05:59.473Z,86.30
2019-01-27T23:06:59.512Z,86.86
2019-01-27T23:07:59.436Z,85.99
2019-01-27T23:08:59.503Z,85.61
2019-01-27T23:09:59.419Z,87.17
2019-01-27T23:10:59.505Z,87.27
2019-01-27T23:11:59.437Z,87.03
2019-01-27T23:12:59.519Z,86.76
2019-01-27T23:13:59.397Z,87.07
2019-01-27T23:14:59.463Z,86.76
2019-01-27T23:15:59.366Z,86.96
2019-01-27T23:16:59.998Z,87.17
2019-01-27T23:17:59.361Z,86.76
2019-01-27T23:18:59.357Z,87.27
2019-01-27T23:19:59.313Z,86.65
2019-01-27T23:21:20.364Z,86.76
2019-01-27T23:21:59.336Z,87.17
2019-01-27T23:22:59.378Z,87.48
2019-01-27T23:23:59.277Z,87.07
2019-01-27T23:26:00.401Z,86.44
2019-01-27T23:26:59.416Z,86.30
2019-01-27T23:27:59.236Z,85.88
2019-01-27T23:30:00.349Z,87.03
2019-01-27T23:30:59.226Z,86.55
2019-01-27T23:31:59.238Z,86.65
2019-01-27T23:32:59.263Z,86.65
2019-01-27T23:33:59.162Z,85.99
2019-01-27T23:34:59.246Z,86.93
2019-01-27T23:35:59.157Z,86.86
2019-01-27T23:36:59.205Z,87.34
2019-01-27T23:37:59.112Z,86.86
2019-01-27T23:38:59.217Z,86.55
2019-01-27T23:39:59.096Z,86.86
2019-01-27T23:40:59.201Z,87.27
2019-01-27T23:41:59.123Z,87.27
2019-01-27T23:42:59.300Z,86.55
2019-01-27T23:43:59.055Z,86.51
2019-01-27T23:44:59.152Z,85.72
2019-01-27T23:45:59.041Z,85.68
2019-01-27T23:46:59.121Z,86.13
2019-01-27T23:47:59.047Z,85.82
2019-01-27T23:48:59.032Z,85.72
2019-01-27T23:49:58.982Z,85.57
2019-01-27T23:50:59.034Z,85.72
2019-01-27T23:51:58.977Z,85.93
2019-01-27T23:52:59.096Z,85.68
2019-01-27T23:53:58.951Z,85.82
2019-01-27T23:54:58.958Z,86.09
2019-01-27T23:55:58.926Z,85.88
2019-01-27T23:56:58.985Z,85.99
2019-01-27T23:57:58.937Z,85.72
2019-01-27T23:58:58.986Z,85.51
2019-01-27T23:59:58.876Z,85.88
